Time;durP1;ratioP1;P1;durP2;ratioP2;P2;SDS_P1;SDS_P2;PMS_P1;PMS_P2;Temp;Humidity;BMP_temperature;BMP_pressure;BME280_temperature;BME280_humidity;BME280_pressure;Samples;Min_cycle;Max_cycle;Signal;HPM_P1;HPM_P2
2023/03/04 00:01:14;;;;;;;21.73;11.33;;;;;;;;;;5013110;28;20211;-86
2023/03/04 00:03:41;;;;;;;19.77;11.87;;;;;;;;;;5012459;28;20714;-86
2023/03/04 00:06:09;;;;;;;19.40;11.70;;;;;;;;;;5013004;28;20221;-86
2023/03/04 00:08:36;;;;;;;18.07;11.17;;;;;;;;;;5012749;28;20237;-85
2023/03/04 00:11:04;;;;;;;21.47;12.17;;;;;;;;;;5013061;28;20208;-86
2023/03/04 00:13:32;;;;;;;21.00;11.70;;;;;;;;;;5012643;28;20242;-86
2023/03/04 00:15:59;;;;;;;17.47;10.53;;;;;;;;;;5013906;28;20232;-86
2023/03/04 00:18:26;;;;;;;25.00;11.53;;;;;;;;;;5016600;28;20243;-86
2023/03/04 00:20:53;;;;;;;20.83;11.77;;;;;;;;;;5016774;28;20198;-86
2023/03/04 00:23:21;;;;;;;22.00;11.53;;;;;;;;;;5015784;28;20244;-86
2023/03/04 00:25:48;;;;;;;25.13;11.37;;;;;;;;;;5017063;28;20692;-86
2023/03/04 00:28:15;;;;;;;27.33;12.33;;;;;;;;;;5015922;28;20232;-86
2023/03/04 00:30:43;;;;;;;19.03;11.80;;;;;;;;;;5016919;28;20208;-87
2023/03/04 00:33:10;;;;;;;20.90;11.40;;;;;;;;;;5015914;28;20753;-86
2023/03/04 00:35:37;;;;;;;21.60;11.57;;;;;;;;;;5016822;28;20234;-87
2023/03/04 00:38:04;;;;;;;19.03;11.40;;;;;;;;;;5016001;28;20244;-86
2023/03/04 00:40:31;;;;;;;19.03;12.33;;;;;;;;;;5016122;28;20217;-86
2023/03/04 00:42:59;;;;;;;21.67;12.13;;;;;;;;;;5016060;28;20236;-86
2023/03/04 00:45:26;;;;;;;24.50;13.03;;;;;;;;;;5016053;28;20204;-86
2023/03/04 00:47:54;;;;;;;19.00;12.07;;;;;;;;;;5015248;28;20237;-87
2023/03/04 00:50:21;;;;;;;26.27;12.63;;;;;;;;;;5016011;28;20215;-87
2023/03/04 00:52:48;;;;;;;23.50;12.53;;;;;;;;;;5015733;28;20246;-86
2023/03/04 00:55:15;;;;;;;25.03;12.20;;;;;;;;;;5016434;28;20234;-86
2023/03/04 00:57:42;;;;;;;22.87;12.60;;;;;;;;;;5015278;28;20241;-87
2023/03/04 01:00:10;;;;;;;20.80;10.43;;;;;;;;;;5015991;28;20223;-87
2023/03/04 01:02:37;;;;;;;17.30;10.07;;;;;;;;;;5015593;28;20216;-87
2023/03/04 01:05:06;;;;;;;14.27;9.33;;;;;;;;;;5016344;28;20235;-87
2023/03/04 01:07:33;;;;;;;18.67;10.17;;;;;;;;;;5015954;28;20235;-86
2023/03/04 01:10:00;;;;;;;16.77;10.17;;;;;;;;;;5016139;28;20213;-87
2023/03/04 01:12:28;;;;;;;16.03;10.10;;;;;;;;;;5015890;28;20209;-87
2023/03/04 01:14:55;;;;;;;14.70;9.30;;;;;;;;;;5016170;28;20211;-88
2023/03/04 01:17:22;;;;;;;19.27;10.13;;;;;;;;;;5015812;28;20622;-87
2023/03/04 01:19:49;;;;;;;14.87;9.03;;;;;;;;;;5016323;28;20204;-87
2023/03/04 01:22:17;;;;;;;15.27;9.27;;;;;;;;;;5016861;28;20221;-87
2023/03/04 01:24:45;;;;;;;16.87;9.77;;;;;;;;;;5016018;28;20232;-88
2023/03/04 01:27:12;;;;;;;17.93;9.37;;;;;;;;;;5015638;28;20220;-88
2023/03/04 01:29:39;;;;;;;13.57;8.60;;;;;;;;;;5015582;28;20232;-87
2023/03/04 01:32:06;;;;;;;16.60;8.87;;;;;;;;;;5016250;28;20675;-88
2023/03/04 01:34:33;;;;;;;17.90;9.47;;;;;;;;;;5015691;28;20239;-88
2023/03/04 01:37:00;;;;;;;16.30;8.63;;;;;;;;;;5016037;28;20238;-88
2023/03/04 01:39:28;;;;;;;16.27;9.53;;;;;;;;;;5015468;28;20223;-88
2023/03/04 01:41:56;;;;;;;16.70;8.57;;;;;;;;;;5015961;28;20196;-87
2023/03/04 01:44:23;;;;;;;13.40;8.60;;;;;;;;;;5015764;28;20239;-87
2023/03/04 01:46:52;;;;;;;14.20;9.40;;;;;;;;;;5016723;28;20220;-88
2023/03/04 01:49:19;;;;;;;14.67;9.20;;;;;;;;;;5016081;28;20240;-88
2023/03/04 01:51:48;;;;;;;15.73;9.17;;;;;;;;;;5016556;28;20211;-88
2023/03/04 01:54:15;;;;;;;19.23;11.30;;;;;;;;;;5015890;28;20231;-88
2023/03/04 01:56:45;;;;;;;14.00;8.83;;;;;;;;;;5016795;28;20227;-87
2023/03/04 01:59:13;;;;;;;14.13;9.67;;;;;;;;;;5024100;28;20243;-88
2023/03/04 02:01:41;;;;;;;15.17;9.60;;;;;;;;;;5024701;28;20202;-88
2023/03/04 02:04:09;;;;;;;16.80;10.27;;;;;;;;;;5034306;28;20241;-87
2023/03/04 02:06:36;;;;;;;15.70;10.13;;;;;;;;;;5027665;28;20222;-89
2023/03/04 02:09:04;;;;;;;13.97;9.27;;;;;;;;;;5035038;28;20246;-88
2023/03/04 02:11:31;;;;;;;16.03;10.33;;;;;;;;;;5035750;28;20214;-88
2023/03/04 02:14:01;;;;;;;18.17;10.50;;;;;;;;;;5035038;28;20231;-88
2023/03/04 02:16:28;;;;;;;16.93;9.90;;;;;;;;;;5035757;28;20230;-88
2023/03/04 02:18:55;;;;;;;19.13;10.27;;;;;;;;;;5035153;28;20230;-88
2023/03/04 02:21:24;;;;;;;17.53;8.93;;;;;;;;;;5035205;28;20203;-88
2023/03/04 02:23:57;;;;;;;16.37;9.33;;;;;;;;;;5034862;28;20663;-88
2023/03/04 02:26:27;;;;;;;17.40;10.60;;;;;;;;;;5035839;28;20557;-88
2023/03/04 02:28:55;;;;;;;17.03;9.60;;;;;;;;;;5035268;28;20710;-88
2023/03/04 02:31:26;;;;;;;15.03;9.90;;;;;;;;;;5035438;28;20232;-88
2023/03/04 02:33:55;;;;;;;22.00;11.73;;;;;;;;;;5035040;28;20261;-88
2023/03/04 02:36:22;;;;;;;22.10;10.57;;;;;;;;;;5035304;28;20244;-88
2023/03/04 02:38:50;;;;;;;19.00;10.93;;;;;;;;;;5032990;28;20227;-88
2023/03/04 02:41:18;;;;;;;17.33;10.80;;;;;;;;;;5035031;28;20290;-88
2023/03/04 02:43:48;;;;;;;16.17;10.37;;;;;;;;;;5034420;28;20728;-87
2023/03/04 02:46:15;;;;;;;16.90;10.40;;;;;;;;;;5030555;28;20239;-88
2023/03/04 02:48:42;;;;;;;18.43;10.07;;;;;;;;;;5034569;28;20242;-87
2023/03/04 02:51:09;;;;;;;20.47;11.03;;;;;;;;;;5035085;28;20208;-88
2023/03/04 02:53:36;;;;;;;16.90;10.10;;;;;;;;;;5034302;28;20327;-88
2023/03/04 02:56:03;;;;;;;21.00;10.77;;;;;;;;;;5020488;28;20231;-88
2023/03/04 02:58:30;;;;;;;19.73;11.67;;;;;;;;;;5014169;28;20243;-86
2023/03/04 03:00:58;;;;;;;17.00;10.13;;;;;;;;;;5014462;28;20204;-88
2023/03/04 03:03:25;;;;;;;18.70;10.23;;;;;;;;;;5013990;28;20235;-88
2023/03/04 03:05:54;;;;;;;16.27;10.93;;;;;;;;;;5014691;28;20205;-88
2023/03/04 03:08:21;;;;;;;23.20;11.47;;;;;;;;;;5014312;28;20243;-87
2023/03/04 03:10:48;;;;;;;23.23;12.37;;;;;;;;;;5014918;28;20382;-87
2023/03/04 03:13:15;;;;;;;19.60;12.23;;;;;;;;;;5014589;28;20235;-88
2023/03/04 03:15:42;;;;;;;18.83;11.07;;;;;;;;;;5014404;28;20223;-88
2023/03/04 03:18:11;;;;;;;20.10;10.83;;;;;;;;;;5013574;28;20238;-88
2023/03/04 03:20:38;;;;;;;20.40;10.93;;;;;;;;;;5014806;28;20225;-87
2023/03/04 03:23:05;;;;;;;20.90;11.63;;;;;;;;;;5014578;28;20306;-88
2023/03/04 03:25:32;;;;;;;24.03;12.70;;;;;;;;;;5034120;28;20206;-88
2023/03/04 03:27:59;;;;;;;21.63;12.77;;;;;;;;;;5033485;28;20238;-88
2023/03/04 03:30:26;;;;;;;23.93;12.03;;;;;;;;;;5034136;28;20211;-88
2023/03/04 03:32:53;;;;;;;19.47;10.63;;;;;;;;;;5032559;28;20876;-88
2023/03/04 03:35:22;;;;;;;19.17;11.27;;;;;;;;;;5034117;28;20204;-88
2023/03/04 03:37:49;;;;;;;18.70;11.30;;;;;;;;;;5032904;28;20243;-87
2023/03/04 03:40:16;;;;;;;24.30;12.20;;;;;;;;;;5033854;28;20188;-88
2023/03/04 03:42:43;;;;;;;22.23;12.17;;;;;;;;;;5032107;28;20726;-88
2023/03/04 03:45:11;;;;;;;22.50;11.40;;;;;;;;;;5014244;28;20544;-88
2023/03/04 03:47:38;;;;;;;20.57;11.87;;;;;;;;;;5013187;28;20294;-88
2023/03/04 03:50:06;;;;;;;26.00;13.90;;;;;;;;;;5014889;28;20304;-87
2023/03/04 03:52:34;;;;;;;22.40;12.90;;;;;;;;;;5015141;28;20211;-88
2023/03/04 03:55:01;;;;;;;20.73;10.90;;;;;;;;;;5032808;28;20201;-87
2023/03/04 03:57:29;;;;;;;24.10;11.07;;;;;;;;;;5033216;28;20231;-88
2023/03/04 03:59:56;;;;;;;21.03;12.57;;;;;;;;;;5033277;28;20200;-87
2023/03/04 04:02:23;;;;;;;20.93;11.60;;;;;;;;;;5032576;28;20214;-88
2023/03/04 04:04:50;;;;;;;23.70;12.20;;;;;;;;;;5033218;28;20212;-87
2023/03/04 04:07:17;;;;;;;23.50;13.23;;;;;;;;;;5032663;28;20223;-88
2023/03/04 04:09:46;;;;;;;21.47;12.10;;;;;;;;;;5033108;28;20212;-88
2023/03/04 04:12:15;;;;;;;26.10;13.90;;;;;;;;;;5033236;28;20652;-88
2023/03/04 04:14:42;;;;;;;18.57;12.00;;;;;;;;;;5032789;28;20231;-88
2023/03/04 04:17:09;;;;;;;27.30;14.20;;;;;;;;;;5021355;28;20233;-87
2023/03/04 04:19:36;;;;;;;20.73;11.53;;;;;;;;;;5012903;28;20233;-87
2023/03/04 04:22:04;;;;;;;26.50;13.43;;;;;;;;;;5013079;28;20243;-87
2023/03/04 04:24:31;;;;;;;24.57;13.07;;;;;;;;;;5026587;28;20229;-88
2023/03/04 04:27:00;;;;;;;27.07;13.80;;;;;;;;;;5015115;28;20220;-88
2023/03/04 04:29:27;;;;;;;21.03;12.33;;;;;;;;;;5012648;28;20236;-88
2023/03/04 04:31:54;;;;;;;25.83;13.20;;;;;;;;;;5013362;28;20211;-87
2023/03/04 04:34:21;;;;;;;25.57;13.63;;;;;;;;;;5025149;28;20252;-87
2023/03/04 04:36:48;;;;;;;26.27;14.80;;;;;;;;;;5032532;28;20235;-87
2023/03/04 04:39:15;;;;;;;31.13;14.60;;;;;;;;;;5032567;28;20234;-85
2023/03/04 04:41:44;;;;;;;28.03;13.53;;;;;;;;;;5028685;28;20205;-86
2023/03/04 04:44:12;;;;;;;26.27;13.20;;;;;;;;;;5032449;28;20243;-86
2023/03/04 04:46:40;;;;;;;28.63;15.30;;;;;;;;;;5032781;28;20237;-86
2023/03/04 04:49:07;;;;;;;25.43;13.50;;;;;;;;;;5032189;28;20665;-87
2023/03/04 04:51:35;;;;;;;24.27;14.07;;;;;;;;;;5019554;28;20208;-86
2023/03/04 04:54:03;;;;;;;24.33;13.20;;;;;;;;;;5012375;28;20721;-86
2023/03/04 04:56:30;;;;;;;25.07;12.47;;;;;;;;;;5012812;28;20734;-87
2023/03/04 04:58:58;;;;;;;24.97;13.17;;;;;;;;;;5012446;28;20696;-86
2023/03/04 05:01:27;;;;;;;24.07;12.83;;;;;;;;;;5024419;28;20206;-86
2023/03/04 05:03:55;;;;;;;24.60;12.40;;;;;;;;;;5035677;28;20236;-86
2023/03/04 05:06:22;;;;;;;25.93;14.57;;;;;;;;;;5035837;28;20232;-87
2023/03/04 05:08:49;;;;;;;22.90;12.20;;;;;;;;;;5035380;28;20248;-86
2023/03/04 05:11:18;;;;;;;24.30;13.33;;;;;;;;;;5035699;28;20205;-86
2023/03/04 05:13:45;;;;;;;25.33;13.73;;;;;;;;;;5035022;28;20248;-86
2023/03/04 05:16:13;;;;;;;24.57;12.70;;;;;;;;;;5035686;28;20594;-85
2023/03/04 05:18:41;;;;;;;27.27;13.77;;;;;;;;;;5035679;28;20266;-86
2023/03/04 05:21:09;;;;;;;28.87;15.27;;;;;;;;;;5025772;28;20556;-86
2023/03/04 05:23:37;;;;;;;24.47;13.57;;;;;;;;;;5015372;28;20240;-86
2023/03/04 05:26:05;;;;;;;28.30;14.57;;;;;;;;;;5015526;28;20206;-86
2023/03/04 05:28:32;;;;;;;29.00;14.20;;;;;;;;;;5015271;28;20238;-86
2023/03/04 05:30:59;;;;;;;23.77;13.77;;;;;;;;;;5020786;28;20213;-85
2023/03/04 05:33:26;;;;;;;27.53;13.77;;;;;;;;;;5035080;28;20238;-86
2023/03/04 05:35:55;;;;;;;32.10;15.33;;;;;;;;;;5035223;28;20208;-86
2023/03/04 05:38:22;;;;;;;25.07;12.57;;;;;;;;;;5035284;28;20240;-86
2023/03/04 05:40:50;;;;;;;25.17;13.50;;;;;;;;;;5034202;28;20208;-86
2023/03/04 05:43:17;;;;;;;25.97;12.83;;;;;;;;;;5034771;28;20237;-86
2023/03/04 05:45:44;;;;;;;25.43;14.60;;;;;;;;;;5035656;28;20681;-86
2023/03/04 05:48:11;;;;;;;34.97;19.53;;;;;;;;;;5037988;28;20240;-86
2023/03/04 05:50:38;;;;;;;30.73;16.67;;;;;;;;;;5017839;28;20674;-86
2023/03/04 05:53:06;;;;;;;25.23;14.57;;;;;;;;;;5014688;28;20582;-86
2023/03/04 05:55:34;;;;;;;27.50;14.50;;;;;;;;;;5015483;28;20209;-87
2023/03/04 05:58:01;;;;;;;30.90;14.27;;;;;;;;;;5014981;28;20249;-87
2023/03/04 06:00:28;;;;;;;26.60;13.37;;;;;;;;;;5015591;28;20205;-87
2023/03/04 06:02:55;;;;;;;29.80;16.40;;;;;;;;;;5014566;28;20238;-86
2023/03/04 06:05:22;;;;;;;27.43;14.17;;;;;;;;;;5015682;28;20207;-86
2023/03/04 06:07:49;;;;;;;25.53;13.73;;;;;;;;;;5014392;28;20694;-85
2023/03/04 06:10:18;;;;;;;23.93;13.73;;;;;;;;;;5014536;28;20671;-84
2023/03/04 06:12:45;;;;;;;20.47;12.70;;;;;;;;;;5013550;28;20296;-84
2023/03/04 06:15:12;;;;;;;24.90;14.53;;;;;;;;;;5014239;28;20292;-85
2023/03/04 06:17:40;;;;;;;31.17;14.93;;;;;;;;;;5013543;28;20242;-84
2023/03/04 06:20:08;;;;;;;27.77;14.17;;;;;;;;;;5014453;28;20210;-84
2023/03/04 06:22:35;;;;;;;31.37;14.80;;;;;;;;;;5013799;28;20210;-84
2023/03/04 06:25:02;;;;;;;32.37;16.27;;;;;;;;;;5014274;28;20225;-85
2023/03/04 06:27:31;;;;;;;26.37;13.97;;;;;;;;;;5013893;28;20229;-86
2023/03/04 06:29:58;;;;;;;30.17;15.17;;;;;;;;;;5015090;28;20240;-86
2023/03/04 06:32:25;;;;;;;29.30;14.80;;;;;;;;;;5013778;28;20198;-85
2023/03/04 06:34:52;;;;;;;27.97;15.47;;;;;;;;;;5014236;28;20222;-86
2023/03/04 06:37:19;;;;;;;25.93;14.90;;;;;;;;;;5022420;28;20233;-87
2023/03/04 06:39:46;;;;;;;30.83;14.93;;;;;;;;;;5034127;28;20214;-86
2023/03/04 06:42:14;;;;;;;32.17;15.23;;;;;;;;;;5034370;28;20217;-86
2023/03/04 06:44:42;;;;;;;34.30;16.33;;;;;;;;;;5026565;28;20602;-87
2023/03/04 06:47:09;;;;;;;29.97;15.30;;;;;;;;;;5014278;28;20724;-86
2023/03/04 06:49:36;;;;;;;27.83;15.40;;;;;;;;;;5014272;28;20242;-86
2023/03/04 06:52:03;;;;;;;30.37;15.07;;;;;;;;;;5014348;28;20215;-86
2023/03/04 06:54:30;;;;;;;28.60;15.33;;;;;;;;;;5013716;28;20238;-86
2023/03/04 06:56:58;;;;;;;31.87;16.73;;;;;;;;;;5013416;28;20234;-85
2023/03/04 06:59:25;;;;;;;33.53;15.80;;;;;;;;;;5013245;28;20238;-85
2023/03/04 07:01:53;;;;;;;30.70;16.00;;;;;;;;;;5013856;28;20211;-86
2023/03/04 07:04:21;;;;;;;33.70;15.37;;;;;;;;;;5013974;28;20238;-82
2023/03/04 07:06:48;;;;;;;30.23;15.00;;;;;;;;;;5012921;28;20233;-84
2023/03/04 07:09:15;;;;;;;26.23;14.77;;;;;;;;;;5012260;28;20239;-83
2023/03/04 07:11:42;;;;;;;35.80;16.93;;;;;;;;;;5012911;28;20660;-84
2023/03/04 07:14:10;;;;;;;30.63;15.30;;;;;;;;;;5023326;28;20599;-84
2023/03/04 07:16:37;;;;;;;32.47;16.50;;;;;;;;;;5032530;28;20257;-84
2023/03/04 07:19:05;;;;;;;30.33;15.70;;;;;;;;;;5032018;28;20246;-84
2023/03/04 07:21:33;;;;;;;30.83;15.87;;;;;;;;;;5032236;28;20208;-84
2023/03/04 07:24:00;;;;;;;31.67;17.40;;;;;;;;;;5026150;28;20262;-84
2023/03/04 07:26:27;;;;;;;30.97;16.10;;;;;;;;;;5012345;28;20230;-85
2023/03/04 07:28:56;;;;;;;29.77;15.83;;;;;;;;;;5012326;28;20241;-86
2023/03/04 07:31:24;;;;;;;28.80;15.63;;;;;;;;;;5012857;28;20419;-85
2023/03/04 07:33:51;;;;;;;31.33;16.93;;;;;;;;;;5020415;28;20278;-85
2023/03/04 07:36:20;;;;;;;36.50;16.73;;;;;;;;;;5032333;28;20234;-83
2023/03/04 07:38:47;;;;;;;32.33;16.23;;;;;;;;;;5031809;28;20248;-85
2023/03/04 07:41:14;;;;;;;32.63;16.47;;;;;;;;;;5032153;28;20206;-83
2023/03/04 07:43:41;;;;;;;33.93;16.23;;;;;;;;;;5031608;28;20631;-83
2023/03/04 07:46:09;;;;;;;38.97;18.63;;;;;;;;;;5032381;28;20949;-83
2023/03/04 07:48:36;;;;;;;37.03;18.07;;;;;;;;;;5032001;28;20245;-84
2023/03/04 07:51:04;;;;;;;45.20;21.13;;;;;;;;;;5032586;28;20237;-84
2023/03/04 07:53:33;;;;;;;45.53;23.17;;;;;;;;;;5020873;28;20236;-84
2023/03/04 07:56:00;;;;;;;43.73;21.73;;;;;;;;;;5032463;28;20217;-84
2023/03/04 07:58:27;;;;;;;44.07;22.03;;;;;;;;;;5031812;28;20252;-83
2023/03/04 08:00:54;;;;;;;41.07;20.87;;;;;;;;;;5031742;28;20685;-84
2023/03/04 08:03:21;;;;;;;41.20;21.33;;;;;;;;;;5011954;28;20239;-86
2023/03/04 08:05:48;;;;;;;41.03;20.10;;;;;;;;;;5022262;28;20566;-86
2023/03/04 08:08:17;;;;;;;38.00;20.43;;;;;;;;;;5039205;28;20709;-86
2023/03/04 08:10:46;;;;;;;36.67;19.63;;;;;;;;;;5040292;28;20218;-86
2023/03/04 08:13:13;;;;;;;42.00;21.20;;;;;;;;;;5020974;28;20226;-86
2023/03/04 08:15:43;;;;;;;37.83;21.80;;;;;;;;;;5051557;28;20216;-86
2023/03/04 08:18:11;;;;;;;41.43;21.87;;;;;;;;;;5051858;28;20245;-86
2023/03/04 08:20:38;;;;;;;38.83;19.70;;;;;;;;;;5052415;28;20213;-86
2023/03/04 08:23:07;;;;;;;47.67;21.23;;;;;;;;;;5027588;28;20242;-87
2023/03/04 08:25:34;;;;;;;32.23;20.13;;;;;;;;;;5035726;28;20195;-87
2023/03/04 08:28:03;;;;;;;34.80;19.83;;;;;;;;;;5050819;28;20237;-86
2023/03/04 08:30:30;;;;;;;33.17;19.47;;;;;;;;;;5038642;28;20199;-86
2023/03/04 08:32:57;;;;;;;35.23;19.90;;;;;;;;;;5038627;28;20239;-87
2023/03/04 08:35:24;;;;;;;43.27;22.87;;;;;;;;;;5044915;28;20214;-86
2023/03/04 08:37:51;;;;;;;38.17;20.73;;;;;;;;;;5042478;28;20310;-86
2023/03/04 08:40:18;;;;;;;39.87;23.87;;;;;;;;;;5045653;28;20195;-86
2023/03/04 08:42:45;;;;;;;38.20;21.70;;;;;;;;;;5039623;28;20231;-85
2023/03/04 08:45:14;;;;;;;35.07;20.37;;;;;;;;;;5018647;28;20200;-86
2023/03/04 08:47:41;;;;;;;36.67;19.90;;;;;;;;;;5056359;28;20237;-86
2023/03/04 08:50:09;;;;;;;32.87;19.43;;;;;;;;;;5044850;28;20656;-85
2023/03/04 08:52:36;;;;;;;31.73;18.53;;;;;;;;;;5051403;28;20199;-84
2023/03/04 08:55:04;;;;;;;34.77;19.07;;;;;;;;;;5037524;28;20203;-85
2023/03/04 08:57:31;;;;;;;30.90;17.50;;;;;;;;;;5047574;28;20221;-85
2023/03/04 08:59:58;;;;;;;30.97;18.20;;;;;;;;;;5052844;28;20202;-83
2023/03/04 09:02:26;;;;;;;33.57;18.63;;;;;;;;;;5056738;28;20213;-86
2023/03/04 09:04:56;;;;;;;30.77;18.93;;;;;;;;;;5017996;28;20227;-87
2023/03/04 09:07:23;;;;;;;35.90;18.77;;;;;;;;;;5049066;28;20221;-87
2023/03/04 09:09:50;;;;;;;33.73;18.20;;;;;;;;;;5051535;28;20202;-87
2023/03/04 09:12:17;;;;;;;30.93;18.70;;;;;;;;;;5041720;28;20195;-87
2023/03/04 09:14:49;;;;;;;32.40;18.27;;;;;;;;;;5052376;28;20259;-87
2023/03/04 09:17:16;;;;;;;34.93;18.60;;;;;;;;;;5051404;28;20226;-86
2023/03/04 09:19:44;;;;;;;27.27;16.03;;;;;;;;;;5042430;28;20230;-86
2023/03/04 09:22:11;;;;;;;31.47;17.17;;;;;;;;;;5038456;28;20206;-86
2023/03/04 09:24:39;;;;;;;31.73;17.07;;;;;;;;;;5035295;28;20250;-86
2023/03/04 09:27:06;;;;;;;31.70;17.47;;;;;;;;;;5044152;28;20226;-86
2023/03/04 09:29:33;;;;;;;29.47;16.97;;;;;;;;;;5022800;28;20227;-85
2023/03/04 09:32:00;;;;;;;36.40;18.37;;;;;;;;;;5015086;28;20204;-85
2023/03/04 09:34:27;;;;;;;30.43;17.10;;;;;;;;;;5014571;28;20780;-84
2023/03/04 09:36:55;;;;;;;31.90;17.53;;;;;;;;;;5015334;28;20238;-85
2023/03/04 09:39:22;;;;;;;31.83;19.73;;;;;;;;;;5014572;28;20246;-84
2023/03/04 09:41:51;;;;;;;34.33;17.30;;;;;;;;;;5015611;28;20577;-85
2023/03/04 09:44:23;;;;;;;31.03;17.67;;;;;;;;;;5015909;28;20587;-85
2023/03/04 09:46:50;;;;;;;26.63;16.70;;;;;;;;;;5015082;28;20233;-85
2023/03/04 09:49:18;;;;;;;27.03;16.83;;;;;;;;;;5014094;28;20237;-84
2023/03/04 09:51:48;;;;;;;28.73;16.53;;;;;;;;;;5014425;28;20210;-85
2023/03/04 09:54:22;;;;;;;25.20;15.20;;;;;;;;;;5013961;28;20247;-83
2023/03/04 09:56:51;;;;;;;27.60;16.63;;;;;;;;;;5014704;28;20232;-85
2023/03/04 09:59:23;;;;;;;31.07;16.00;;;;;;;;;;5014289;28;20246;-85
2023/03/04 10:01:52;;;;;;;23.17;14.87;;;;;;;;;;5015294;28;20192;-84
2023/03/04 10:04:26;;;;;;;24.47;14.73;;;;;;;;;;5014389;28;20238;-88
2023/03/04 10:06:55;;;;;;;27.90;15.20;;;;;;;;;;5019102;28;20233;-87
2023/03/04 10:09:25;;;;;;;29.57;16.40;;;;;;;;;;5026992;28;20226;-86
2023/03/04 10:11:58;;;;;;;27.53;16.50;;;;;;;;;;5035459;28;20652;-87
2023/03/04 10:14:32;;;;;;;28.13;16.47;;;;;;;;;;5014724;28;20238;-85
2023/03/04 10:17:01;;;;;;;29.97;16.80;;;;;;;;;;5014640;28;20231;-89
2023/03/04 10:19:34;;;;;;;24.03;15.40;;;;;;;;;;5013662;28;20231;-85
2023/03/04 10:22:02;;;;;;;21.77;15.03;;;;;;;;;;5059255;22;20229;-83
2023/03/04 10:24:30;;;;;;;25.07;14.27;;;;;;;;;;5049801;28;20230;-82
2023/03/04 10:27:01;;;;;;;23.40;13.43;;;;;;;;;;5044143;28;20202;-83
2023/03/04 10:29:30;;;;;;;25.40;14.17;;;;;;;;;;5043411;28;20233;-83
2023/03/04 10:31:57;;;;;;;27.50;14.13;;;;;;;;;;5045466;28;20227;-84
2023/03/04 10:34:25;;;;;;;23.33;13.87;;;;;;;;;;5041242;28;20230;-84
2023/03/04 10:36:57;;;;;;;26.17;14.30;;;;;;;;;;5050233;28;20233;-84
2023/03/04 10:39:27;;;;;;;24.27;13.23;;;;;;;;;;5038408;28;20228;-84
2023/03/04 10:41:57;;;;;;;25.27;14.10;;;;;;;;;;5044703;28;20226;-84
2023/03/04 10:44:24;;;;;;;25.13;14.10;;;;;;;;;;5046779;28;20225;-84
2023/03/04 10:46:53;;;;;;;25.03;14.73;;;;;;;;;;5052662;28;20233;-84
2023/03/04 10:49:20;;;;;;;27.87;14.20;;;;;;;;;;5052232;28;20226;-83
2023/03/04 10:51:49;;;;;;;27.07;13.80;;;;;;;;;;5052443;28;20701;-85
2023/03/04 10:54:27;;;;;;;22.37;14.43;;;;;;;;;;5052309;28;20323;-85
2023/03/04 10:56:58;;;;;;;27.40;14.83;;;;;;;;;;5052715;28;20208;-85
2023/03/04 10:59:34;;;;;;;23.63;12.80;;;;;;;;;;5051522;28;20230;-84
2023/03/04 11:02:02;;;;;;;24.67;13.93;;;;;;;;;;5052364;28;20312;-85
2023/03/04 11:04:34;;;;;;;26.27;14.33;;;;;;;;;;5032068;28;20276;-85
2023/03/04 11:07:01;;;;;;;26.50;14.43;;;;;;;;;;5031821;28;20573;-85
2023/03/04 11:09:29;;;;;;;25.70;14.00;;;;;;;;;;5031406;28;20232;-85
2023/03/04 11:11:59;;;;;;;26.57;14.37;;;;;;;;;;5045726;28;20220;-85
2023/03/04 11:14:29;;;;;;;21.20;13.33;;;;;;;;;;5031479;28;20230;-84
2023/03/04 11:16:57;;;;;;;25.73;14.20;;;;;;;;;;5031981;28;20304;-84
2023/03/04 11:19:25;;;;;;;20.20;13.50;;;;;;;;;;5031509;28;20245;-85
2023/03/04 11:21:53;;;;;;;22.83;11.90;;;;;;;;;;5031573;28;20238;-86
2023/03/04 11:24:24;;;;;;;32.17;13.80;;;;;;;;;;5031300;28;20579;-85
2023/03/04 11:26:54;;;;;;;26.10;13.03;;;;;;;;;;5031643;28;20206;-85
2023/03/04 11:29:24;;;;;;;22.90;13.10;;;;;;;;;;5031229;28;20230;-84
2023/03/04 11:31:55;;;;;;;21.77;14.47;;;;;;;;;;5031607;28;20229;-85
2023/03/04 11:34:29;;;;;;;26.80;13.43;;;;;;;;;;5031160;28;20705;-84
2023/03/04 11:36:58;;;;;;;29.63;12.73;;;;;;;;;;5031833;28;20199;-84
2023/03/04 11:39:34;;;;;;;22.63;11.67;;;;;;;;;;5031556;28;20242;-85
2023/03/04 11:42:05;;;;;;;20.40;10.27;;;;;;;;;;5037509;28;20229;-85
2023/03/04 11:44:35;;;;;;;26.13;10.10;;;;;;;;;;5051036;28;20994;-85
2023/03/04 11:47:21;;;;;;;22.77;10.40;;;;;;;;;;5034894;28;20261;-85
2023/03/04 11:49:56;;;;;;;20.03;12.27;;;;;;;;;;5031052;28;20616;-85
2023/03/04 11:52:29;;;;;;;26.67;12.57;;;;;;;;;;5030424;28;20229;-85
2023/03/04 11:55:07;;;;;;;24.93;12.53;;;;;;;;;;5031529;28;20220;-85
2023/03/04 11:57:38;;;;;;;18.50;10.80;;;;;;;;;;5030845;28;20233;-85
2023/03/04 12:00:22;;;;;;;24.00;10.33;;;;;;;;;;5031566;28;20219;-85
2023/03/04 12:02:56;;;;;;;15.57;10.10;;;;;;;;;;5030287;28;20238;-85
2023/03/04 12:05:38;;;;;;;19.47;11.07;;;;;;;;;;5031007;28;20198;-86
2023/03/04 12:08:23;;;;;;;17.53;10.07;;;;;;;;;;5030553;28;20244;-86
2023/03/04 12:10:52;;;;;;;15.37;8.70;;;;;;;;;;5032277;28;20226;-85
2023/03/04 12:13:37;;;;;;;18.27;8.77;;;;;;;;;;5034993;28;20252;-85
2023/03/04 12:16:11;;;;;;;18.30;9.47;;;;;;;;;;5035057;28;20607;-85
2023/03/04 12:18:43;;;;;;;22.50;10.77;;;;;;;;;;5035030;28;20626;-85
2023/03/04 12:21:25;;;;;;;20.77;10.30;;;;;;;;;;5035196;28;20253;-86
2023/03/04 12:24:03;;;;;;;21.10;9.83;;;;;;;;;;5034064;28;20233;-85
2023/03/04 12:26:33;;;;;;;19.93;10.03;;;;;;;;;;5035374;28;20277;-86
2023/03/04 12:29:04;;;;;;;17.73;10.23;;;;;;;;;;5034826;28;20241;-86
2023/03/04 12:31:40;;;;;;;22.87;10.10;;;;;;;;;;5035597;28;20237;-86
2023/03/04 12:34:19;;;;;;;21.47;10.60;;;;;;;;;;5034420;28;20706;-86
2023/03/04 12:36:51;;;;;;;22.30;10.00;;;;;;;;;;5035062;28;20611;-85
2023/03/04 12:39:29;;;;;;;16.80;9.60;;;;;;;;;;5034476;28;20241;-86
2023/03/04 12:41:59;;;;;;;21.53;9.80;;;;;;;;;;5034683;28;20226;-85
2023/03/04 12:44:27;;;;;;;21.10;9.77;;;;;;;;;;5034160;28;20234;-86
2023/03/04 12:47:05;;;;;;;17.00;9.33;;;;;;;;;;5034892;28;20213;-86
2023/03/04 12:49:38;;;;;;;18.13;10.43;;;;;;;;;;5034929;28;20322;-86
2023/03/04 12:52:09;;;;;;;21.97;11.00;;;;;;;;;;5037142;28;20234;-86
2023/03/04 12:54:38;;;;;;;19.67;12.07;;;;;;;;;;5033708;28;20249;-86
2023/03/04 12:57:09;;;;;;;21.37;11.30;;;;;;;;;;5034693;28;20214;-87
2023/03/04 12:59:38;;;;;;;22.50;11.43;;;;;;;;;;5033893;28;20717;-86
2023/03/04 13:02:17;;;;;;;22.70;11.20;;;;;;;;;;5034327;28;20219;-86
2023/03/04 13:04:52;;;;;;;23.53;11.13;;;;;;;;;;5031027;28;20305;-86
2023/03/04 13:07:23;;;;;;;21.40;11.33;;;;;;;;;;5034059;28;20210;-88
2023/03/04 13:09:53;;;;;;;20.43;11.67;;;;;;;;;;5034402;28;20207;-85
2023/03/04 13:12:21;;;;;;;20.93;10.80;;;;;;;;;;5033848;28;20233;-85
2023/03/04 13:15:17;;;;;;;23.37;10.73;;;;;;;;;;5018793;28;20218;-87
2023/03/04 13:17:47;;;;;;;18.53;11.23;;;;;;;;;;5037659;28;20262;-86
2023/03/04 13:20:23;;;;;;;20.17;10.20;;;;;;;;;;5028914;28;20222;-86
2023/03/04 13:22:53;;;;;;;26.20;11.67;;;;;;;;;;5032360;28;20234;-86
2023/03/04 13:25:37;;;;;;;26.77;11.37;;;;;;;;;;5030722;28;20241;-86
2023/03/04 13:28:18;;;;;;;23.50;10.20;;;;;;;;;;5021081;28;20234;-86
2023/03/04 13:31:08;;;;;;;20.80;10.57;;;;;;;;;;5014035;28;20214;-86
2023/03/04 13:33:47;;;;;;;17.10;8.90;;;;;;;;;;5020957;28;20231;-86
2023/03/04 13:36:28;;;;;;;21.10;10.43;;;;;;;;;;5035976;28;20246;-86
2023/03/04 13:39:00;;;;;;;20.13;9.60;;;;;;;;;;5013624;28;20239;-85
2023/03/04 13:41:31;;;;;;;15.93;9.37;;;;;;;;;;5026347;28;20222;-84
2023/03/04 13:43:58;;;;;;;15.07;5.90;;;;;;;;;;5033106;28;20231;-84
2023/03/04 13:46:42;;;;;;;19.40;10.23;;;;;;;;;;5036290;28;20565;-85
2023/03/04 13:49:18;;;;;;;19.70;10.03;;;;;;;;;;5030783;28;20242;-86
2023/03/04 13:51:45;;;;;;;17.23;9.70;;;;;;;;;;5021158;28;20226;-85
2023/03/04 13:54:14;;;;;;;24.40;11.20;;;;;;;;;;5021766;28;20235;-86
2023/03/04 13:56:42;;;;;;;17.27;8.33;;;;;;;;;;5029471;28;20207;-86
2023/03/04 13:59:16;;;;;;;18.27;8.90;;;;;;;;;;5016628;28;20258;-86
2023/03/04 14:01:54;;;;;;;11.70;7.13;;;;;;;;;;5017734;28;20214;-86
2023/03/04 14:04:25;;;;;;;16.80;9.63;;;;;;;;;;5025803;28;20689;-87
2023/03/04 14:06:54;;;;;;;5.60;4.50;;;;;;;;;;5029493;28;20426;-84
2023/03/04 14:09:23;;;;;;;20.17;9.73;;;;;;;;;;5035296;28;20226;-83
2023/03/04 14:11:51;;;;;;;24.77;11.80;;;;;;;;;;5032876;28;20221;-86
2023/03/04 14:14:20;;;;;;;20.40;10.43;;;;;;;;;;5032711;28;20234;-86
2023/03/04 14:16:49;;;;;;;18.93;10.33;;;;;;;;;;5032768;28;20225;-84
2023/03/04 14:19:17;;;;;;;19.77;9.73;;;;;;;;;;5032688;28;20245;-86
2023/03/04 14:21:48;;;;;;;16.40;8.20;;;;;;;;;;5032453;28;20234;-87
2023/03/04 14:24:16;;;;;;;17.77;9.90;;;;;;;;;;5032401;28;20234;-86
2023/03/04 14:26:43;;;;;;;16.77;9.50;;;;;;;;;;5032464;28;20207;-86
2023/03/04 14:29:21;;;;;;;16.43;9.53;;;;;;;;;;5032409;28;20235;-86